sensor_id;sensor_type;location;lat;lon;timestamp;P1;durP1;ratioP1;P2;durP2;ratioP2
51877;SDS011;37911;51.526;11.536;2023-10-08T00:01:42;21.58;;;5.88;;
51877;SDS011;37911;51.526;11.536;2023-10-08T00:04:47;33.00;;;6.35;;
51877;SDS011;37911;51.526;11.536;2023-10-08T00:07:54;19.60;;;6.07;;
51877;SDS011;37911;51.526;11.536;2023-10-08T00:10:58;16.27;;;6.10;;
51877;SDS011;37911;51.526;11.536;2023-10-08T00:14:08;16.63;;;5.72;;
51877;SDS011;37911;51.526;11.536;2023-10-08T00:17:21;14.95;;;6.03;;
51877;SDS011;37911;51.526;11.536;2023-10-08T00:20:26;18.23;;;6.18;;
51877;SDS011;37911;51.526;11.536;2023-10-08T00:23:35;20.33;;;6.30;;
51877;SDS011;37911;51.526;11.536;2023-10-08T00:26:42;16.38;;;6.03;;
51877;SDS011;37911;51.526;11.536;2023-10-08T00:29:49;16.77;;;6.00;;
51877;SDS011;37911;51.526;11.536;2023-10-08T00:32:52;17.08;;;5.93;;
51877;SDS011;37911;51.526;11.536;2023-10-08T00:35:56;18.42;;;5.63;;
51877;SDS011;37911;51.526;11.536;2023-10-08T00:39:18;18.25;;;5.97;;
51877;SDS011;37911;51.526;11.536;2023-10-08T00:42:26;13.77;;;5.83;;
51877;SDS011;37911;51.526;11.536;2023-10-08T00:45:33;16.02;;;5.78;;
51877;SDS011;37911;51.526;11.536;2023-10-08T00:48:44;15.63;;;5.70;;
51877;SDS011;37911;51.526;11.536;2023-10-08T00:51:50;21.17;;;6.43;;
51877;SDS011;37911;51.526;11.536;2023-10-08T00:55:04;19.45;;;6.63;;
51877;SDS011;37911;51.526;11.536;2023-10-08T00:58:22;16.85;;;6.40;;
51877;SDS011;37911;51.526;11.536;2023-10-08T01:01:30;20.05;;;6.45;;
51877;SDS011;37911;51.526;11.536;2023-10-08T01:04:35;17.33;;;5.55;;
51877;SDS011;37911;51.526;11.536;2023-10-08T01:07:39;6.57;;;3.28;;
51877;SDS011;37911;51.526;11.536;2023-10-08T01:10:51;5.30;;;2.25;;
51877;SDS011;37911;51.526;11.536;2023-10-08T01:14:01;3.28;;;1.27;;
51877;SDS011;37911;51.526;11.536;2023-10-08T01:17:10;3.03;;;1.30;;
51877;SDS011;37911;51.526;11.536;2023-10-08T01:20:16;1.85;;;1.15;;
51877;SDS011;37911;51.526;11.536;2023-10-08T01:23:35;2.22;;;1.10;;
51877;SDS011;37911;51.526;11.536;2023-10-08T01:26:39;2.50;;;1.00;;
51877;SDS011;37911;51.526;11.536;2023-10-08T01:29:43;1.30;;;0.50;;
51877;SDS011;37911;51.526;11.536;2023-10-08T01:32:47;1.58;;;0.65;;
51877;SDS011;37911;51.526;11.536;2023-10-08T01:35:51;0.63;;;0.60;;
51877;SDS011;37911;51.526;11.536;2023-10-08T01:38:57;1.35;;;0.80;;
51877;SDS011;37911;51.526;11.536;2023-10-08T01:42:02;0.57;;;0.57;;
51877;SDS011;37911;51.526;11.536;2023-10-08T01:45:06;0.88;;;0.88;;
51877;SDS011;37911;51.526;11.536;2023-10-08T01:48:16;0.73;;;0.73;;
51877;SDS011;37911;51.526;11.536;2023-10-08T01:51:26;3.63;;;1.67;;
51877;SDS011;37911;51.526;11.536;2023-10-08T01:54:40;3.83;;;1.80;;
51877;SDS011;37911;51.526;11.536;2023-10-08T01:57:44;2.60;;;1.98;;
51877;SDS011;37911;51.526;11.536;2023-10-08T02:00:48;3.60;;;1.90;;
51877;SDS011;37911;51.526;11.536;2023-10-08T02:03:52;2.60;;;1.77;;
51877;SDS011;37911;51.526;11.536;2023-10-08T02:06:56;3.95;;;1.40;;
51877;SDS011;37911;51.526;11.536;2023-10-08T02:10:02;1.60;;;1.50;;
51877;SDS011;37911;51.526;11.536;2023-10-08T02:13:07;1.60;;;1.27;;
51877;SDS011;37911;51.526;11.536;2023-10-08T02:16:17;1.48;;;1.35;;
51877;SDS011;37911;51.526;11.536;2023-10-08T02:19:22;1.30;;;0.93;;
51877;SDS011;37911;51.526;11.536;2023-10-08T02:22:27;3.13;;;0.90;;
51877;SDS011;37911;51.526;11.536;2023-10-08T02:25:33;1.10;;;0.75;;
51877;SDS011;37911;51.526;11.536;2023-10-08T02:28:37;0.35;;;0.35;;
51877;SDS011;37911;51.526;11.536;2023-10-08T02:31:41;0.17;;;0.17;;
51877;SDS011;37911;51.526;11.536;2023-10-08T02:34:45;1.70;;;0.30;;
51877;SDS011;37911;51.526;11.536;2023-10-08T02:37:48;0.22;;;0.22;;
51877;SDS011;37911;51.526;11.536;2023-10-08T02:40:55;0.20;;;0.15;;
51877;SDS011;37911;51.526;11.536;2023-10-08T02:43:59;0.20;;;0.20;;
51877;SDS011;37911;51.526;11.536;2023-10-08T02:47:06;2.83;;;0.30;;
51877;SDS011;37911;51.526;11.536;2023-10-08T02:50:09;1.75;;;0.30;;
51877;SDS011;37911;51.526;11.536;2023-10-08T02:53:17;0.30;;;0.30;;
51877;SDS011;37911;51.526;11.536;2023-10-08T02:56:27;0.65;;;0.20;;
51877;SDS011;37911;51.526;11.536;2023-10-08T02:59:32;1.30;;;0.17;;
51877;SDS011;37911;51.526;11.536;2023-10-08T03:02:41;0.80;;;0.20;;
51877;SDS011;37911;51.526;11.536;2023-10-08T03:05:47;0.38;;;0.30;;
51877;SDS011;37911;51.526;11.536;2023-10-08T03:08:51;0.52;;;0.20;;
51877;SDS011;37911;51.526;11.536;2023-10-08T03:11:57;0.20;;;0.20;;
51877;SDS011;37911;51.526;11.536;2023-10-08T03:15:08;0.20;;;0.20;;
51877;SDS011;37911;51.526;11.536;2023-10-08T03:18:28;2.53;;;0.20;;
51877;SDS011;37911;51.526;11.536;2023-10-08T03:21:36;0.75;;;0.30;;
51877;SDS011;37911;51.526;11.536;2023-10-08T03:24:49;1.30;;;0.30;;
51877;SDS011;37911;51.526;11.536;2023-10-08T03:27:55;0.20;;;0.20;;
51877;SDS011;37911;51.526;11.536;2023-10-08T03:31:00;0.35;;;0.22;;
51877;SDS011;37911;51.526;11.536;2023-10-08T03:34:14;0.88;;;0.40;;
51877;SDS011;37911;51.526;11.536;2023-10-08T03:37:20;0.85;;;0.32;;
51877;SDS011;37911;51.526;11.536;2023-10-08T03:40:29;0.20;;;0.20;;
51877;SDS011;37911;51.526;11.536;2023-10-08T03:43:45;6.68;;;3.83;;
51877;SDS011;37911;51.526;11.536;2023-10-08T03:47:01;1.65;;;0.77;;
51877;SDS011;37911;51.526;11.536;2023-10-08T03:50:10;0.70;;;0.70;;
51877;SDS011;37911;51.526;11.536;2023-10-08T03:53:17;0.60;;;0.60;;
51877;SDS011;37911;51.526;11.536;2023-10-08T03:56:23;1.00;;;0.70;;
51877;SDS011;37911;51.526;11.536;2023-10-08T03:59:32;0.52;;;0.50;;
51877;SDS011;37911;51.526;11.536;2023-10-08T04:02:40;1.23;;;0.45;;
51877;SDS011;37911;51.526;11.536;2023-10-08T04:05:47;0.40;;;0.40;;
51877;SDS011;37911;51.526;11.536;2023-10-08T04:09:04;1.48;;;0.75;;
51877;SDS011;37911;51.526;11.536;2023-10-08T04:12:16;1.27;;;0.70;;
51877;SDS011;37911;51.526;11.536;2023-10-08T04:15:23;2.33;;;0.80;;
51877;SDS011;37911;51.526;11.536;2023-10-08T04:18:27;2.72;;;0.80;;
51877;SDS011;37911;51.526;11.536;2023-10-08T04:21:31;1.92;;;0.80;;
51877;SDS011;37911;51.526;11.536;2023-10-08T04:24:34;5.00;;;1.60;;
51877;SDS011;37911;51.526;11.536;2023-10-08T04:27:43;5.47;;;1.70;;
51877;SDS011;37911;51.526;11.536;2023-10-08T04:30:52;3.88;;;1.60;;
51877;SDS011;37911;51.526;11.536;2023-10-08T04:34:01;4.47;;;1.60;;
51877;SDS011;37911;51.526;11.536;2023-10-08T04:37:10;7.05;;;1.77;;
51877;SDS011;37911;51.526;11.536;2023-10-08T04:40:19;6.13;;;1.60;;
51877;SDS011;37911;51.526;11.536;2023-10-08T04:43:24;5.72;;;1.73;;
51877;SDS011;37911;51.526;11.536;2023-10-08T04:46:30;5.20;;;1.75;;
51877;SDS011;37911;51.526;11.536;2023-10-08T04:49:46;5.43;;;1.42;;
51877;SDS011;37911;51.526;11.536;2023-10-08T04:52:53;5.28;;;2.00;;
51877;SDS011;37911;51.526;11.536;2023-10-08T04:55:59;7.28;;;1.90;;
51877;SDS011;37911;51.526;11.536;2023-10-08T04:59:05;4.07;;;1.67;;
51877;SDS011;37911;51.526;11.536;2023-10-08T05:02:14;4.70;;;1.60;;
51877;SDS011;37911;51.526;11.536;2023-10-08T05:05:34;6.50;;;1.90;;
51877;SDS011;37911;51.526;11.536;2023-10-08T05:08:55;6.00;;;1.80;;
51877;SDS011;37911;51.526;11.536;2023-10-08T05:11:58;5.00;;;1.77;;
51877;SDS011;37911;51.526;11.536;2023-10-08T05:15:28;4.18;;;1.75;;
51877;SDS011;37911;51.526;11.536;2023-10-08T05:18:44;4.40;;;1.40;;
51877;SDS011;37911;51.526;11.536;2023-10-08T05:22:08;8.00;;;1.80;;
51877;SDS011;37911;51.526;11.536;2023-10-08T05:25:41;3.58;;;1.75;;
51877;SDS011;37911;51.526;11.536;2023-10-08T05:28:58;12.25;;;2.33;;
51877;SDS011;37911;51.526;11.536;2023-10-08T05:32:24;8.40;;;2.90;;
51877;SDS011;37911;51.526;11.536;2023-10-08T05:35:41;6.95;;;2.67;;
51877;SDS011;37911;51.526;11.536;2023-10-08T05:39:02;7.03;;;2.35;;
51877;SDS011;37911;51.526;11.536;2023-10-08T05:42:20;7.18;;;2.38;;
51877;SDS011;37911;51.526;11.536;2023-10-08T05:45:31;6.18;;;2.30;;
51877;SDS011;37911;51.526;11.536;2023-10-08T05:48:35;6.75;;;1.98;;
51877;SDS011;37911;51.526;11.536;2023-10-08T05:51:47;5.43;;;1.90;;
51877;SDS011;37911;51.526;11.536;2023-10-08T05:55:14;4.22;;;1.80;;
51877;SDS011;37911;51.526;11.536;2023-10-08T05:58:25;8.68;;;1.80;;
51877;SDS011;37911;51.526;11.536;2023-10-08T06:01:35;4.68;;;2.13;;
51877;SDS011;37911;51.526;11.536;2023-10-08T06:04:42;7.70;;;4.03;;
51877;SDS011;37911;51.526;11.536;2023-10-08T06:07:56;11.02;;;6.75;;
51877;SDS011;37911;51.526;11.536;2023-10-08T06:11:11;15.30;;;8.85;;
51877;SDS011;37911;51.526;11.536;2023-10-08T06:14:27;17.23;;;9.88;;
51877;SDS011;37911;51.526;11.536;2023-10-08T06:17:42;16.92;;;11.40;;
51877;SDS011;37911;51.526;11.536;2023-10-08T06:20:57;16.55;;;10.18;;
51877;SDS011;37911;51.526;11.536;2023-10-08T06:24:04;15.55;;;9.98;;
51877;SDS011;37911;51.526;11.536;2023-10-08T06:27:10;13.73;;;8.55;;
51877;SDS011;37911;51.526;11.536;2023-10-08T06:30:17;11.40;;;5.72;;
51877;SDS011;37911;51.526;11.536;2023-10-08T06:33:22;11.18;;;5.30;;
51877;SDS011;37911;51.526;11.536;2023-10-08T06:36:30;12.95;;;5.80;;
51877;SDS011;37911;51.526;11.536;2023-10-08T06:39:36;8.23;;;3.58;;
51877;SDS011;37911;51.526;11.536;2023-10-08T06:42:50;11.18;;;3.05;;
51877;SDS011;37911;51.526;11.536;2023-10-08T06:45:57;4.55;;;2.03;;
51877;SDS011;37911;51.526;11.536;2023-10-08T06:49:02;9.38;;;2.33;;
51877;SDS011;37911;51.526;11.536;2023-10-08T06:52:11;7.90;;;3.45;;
51877;SDS011;37911;51.526;11.536;2023-10-08T06:55:18;14.10;;;8.05;;
51877;SDS011;37911;51.526;11.536;2023-10-08T06:58:25;20.23;;;13.00;;
51877;SDS011;37911;51.526;11.536;2023-10-08T07:01:29;22.90;;;13.18;;
51877;SDS011;37911;51.526;11.536;2023-10-08T07:04:39;15.13;;;8.95;;
51877;SDS011;37911;51.526;11.536;2023-10-08T07:07:44;15.45;;;6.70;;
51877;SDS011;37911;51.526;11.536;2023-10-08T07:10:50;11.82;;;4.53;;
51877;SDS011;37911;51.526;11.536;2023-10-08T07:13:54;9.50;;;3.47;;
51877;SDS011;37911;51.526;11.536;2023-10-08T07:16:58;10.85;;;3.75;;
51877;SDS011;37911;51.526;11.536;2023-10-08T07:20:09;7.35;;;2.67;;
51877;SDS011;37911;51.526;11.536;2023-10-08T07:23:22;9.98;;;2.63;;
51877;SDS011;37911;51.526;11.536;2023-10-08T07:26:32;10.10;;;3.17;;
51877;SDS011;37911;51.526;11.536;2023-10-08T07:29:39;9.00;;;3.13;;
51877;SDS011;37911;51.526;11.536;2023-10-08T07:32:46;8.80;;;2.25;;
51877;SDS011;37911;51.526;11.536;2023-10-08T07:35:50;5.63;;;2.55;;
51877;SDS011;37911;51.526;11.536;2023-10-08T07:38:57;8.18;;;2.58;;
51877;SDS011;37911;51.526;11.536;2023-10-08T07:42:10;8.52;;;3.15;;
51877;SDS011;37911;51.526;11.536;2023-10-08T07:45:14;10.77;;;3.10;;
51877;SDS011;37911;51.526;11.536;2023-10-08T07:48:18;8.65;;;2.75;;
51877;SDS011;37911;51.526;11.536;2023-10-08T07:51:30;8.23;;;2.90;;
51877;SDS011;37911;51.526;11.536;2023-10-08T07:54:34;7.93;;;2.50;;
51877;SDS011;37911;51.526;11.536;2023-10-08T07:57:40;6.53;;;2.50;;
51877;SDS011;37911;51.526;11.536;2023-10-08T08:00:44;9.98;;;2.80;;
51877;SDS011;37911;51.526;11.536;2023-10-08T08:03:54;10.57;;;3.13;;
51877;SDS011;37911;51.526;11.536;2023-10-08T08:06:58;7.95;;;2.70;;
51877;SDS011;37911;51.526;11.536;2023-10-08T08:10:05;7.38;;;2.60;;
51877;SDS011;37911;51.526;11.536;2023-10-08T08:13:13;8.85;;;2.40;;
51877;SDS011;37911;51.526;11.536;2023-10-08T08:16:20;8.93;;;2.72;;
51877;SDS011;37911;51.526;11.536;2023-10-08T08:19:26;9.95;;;3.35;;
51877;SDS011;37911;51.526;11.536;2023-10-08T08:22:31;9.13;;;2.70;;
51877;SDS011;37911;51.526;11.536;2023-10-08T08:25:41;11.18;;;4.22;;
51877;SDS011;37911;51.526;11.536;2023-10-08T08:29:09;10.75;;;3.78;;
51877;SDS011;37911;51.526;11.536;2023-10-08T08:32:15;7.75;;;2.58;;
51877;SDS011;37911;51.526;11.536;2023-10-08T08:35:22;8.48;;;2.38;;
51877;SDS011;37911;51.526;11.536;2023-10-08T08:38:26;8.18;;;2.45;;
51877;SDS011;37911;51.526;11.536;2023-10-08T08:41:32;7.20;;;2.15;;
51877;SDS011;37911;51.526;11.536;2023-10-08T08:44:41;7.10;;;2.42;;
51877;SDS011;37911;51.526;11.536;2023-10-08T08:47:47;11.93;;;2.65;;
51877;SDS011;37911;51.526;11.536;2023-10-08T08:50:51;12.23;;;3.22;;
51877;SDS011;37911;51.526;11.536;2023-10-08T08:54:00;13.45;;;3.13;;
51877;SDS011;37911;51.526;11.536;2023-10-08T08:57:06;9.82;;;2.47;;
51877;SDS011;37911;51.526;11.536;2023-10-08T09:00:17;10.75;;;2.60;;
51877;SDS011;37911;51.526;11.536;2023-10-08T09:03:21;7.55;;;2.35;;
51877;SDS011;37911;51.526;11.536;2023-10-08T09:06:30;6.95;;;2.38;;
51877;SDS011;37911;51.526;11.536;2023-10-08T09:09:35;10.20;;;2.42;;
51877;SDS011;37911;51.526;11.536;2023-10-08T09:12:39;8.32;;;2.75;;
51877;SDS011;37911;51.526;11.536;2023-10-08T09:15:45;11.02;;;3.42;;
51877;SDS011;37911;51.526;11.536;2023-10-08T09:18:49;10.35;;;2.78;;
51877;SDS011;37911;51.526;11.536;2023-10-08T09:22:00;12.35;;;5.55;;
51877;SDS011;37911;51.526;11.536;2023-10-08T09:25:05;13.88;;;3.13;;
51877;SDS011;37911;51.526;11.536;2023-10-08T09:28:10;8.18;;;2.55;;
51877;SDS011;37911;51.526;11.536;2023-10-08T09:31:17;11.18;;;3.00;;
51877;SDS011;37911;51.526;11.536;2023-10-08T09:34:21;8.02;;;2.45;;
51877;SDS011;37911;51.526;11.536;2023-10-08T09:37:25;7.78;;;2.20;;
51877;SDS011;37911;51.526;11.536;2023-10-08T09:40:29;13.40;;;2.67;;
51877;SDS011;37911;51.526;11.536;2023-10-08T09:43:33;10.18;;;2.70;;
51877;SDS011;37911;51.526;11.536;2023-10-08T09:46:42;24.15;;;3.10;;
51877;SDS011;37911;51.526;11.536;2023-10-08T09:49:49;9.48;;;2.28;;
51877;SDS011;37911;51.526;11.536;2023-10-08T09:52:59;11.00;;;2.80;;
51877;SDS011;37911;51.526;11.536;2023-10-08T09:56:07;9.30;;;2.58;;
51877;SDS011;37911;51.526;11.536;2023-10-08T09:59:18;13.35;;;2.67;;
51877;SDS011;37911;51.526;11.536;2023-10-08T10:02:25;12.65;;;2.70;;
51877;SDS011;37911;51.526;11.536;2023-10-08T10:05:32;14.90;;;2.60;;
51877;SDS011;37911;51.526;11.536;2023-10-08T10:08:36;12.02;;;2.92;;
51877;SDS011;37911;51.526;11.536;2023-10-08T10:11:40;10.82;;;2.63;;
51877;SDS011;37911;51.526;11.536;2023-10-08T10:14:45;11.55;;;2.55;;
51877;SDS011;37911;51.526;11.536;2023-10-08T10:17:51;8.75;;;2.33;;
51877;SDS011;37911;51.526;11.536;2023-10-08T10:20:57;9.57;;;3.08;;
51877;SDS011;37911;51.526;11.536;2023-10-08T10:24:03;11.25;;;2.80;;
51877;SDS011;37911;51.526;11.536;2023-10-08T10:27:12;8.60;;;2.50;;
51877;SDS011;37911;51.526;11.536;2023-10-08T10:30:18;11.45;;;2.15;;
51877;SDS011;37911;51.526;11.536;2023-10-08T10:33:32;8.23;;;2.55;;
51877;SDS011;37911;51.526;11.536;2023-10-08T10:36:37;9.15;;;2.38;;
51877;SDS011;37911;51.526;11.536;2023-10-08T10:39:42;7.38;;;2.10;;
51877;SDS011;37911;51.526;11.536;2023-10-08T10:42:47;8.45;;;2.25;;
51877;SDS011;37911;51.526;11.536;2023-10-08T10:45:54;8.98;;;1.90;;
51877;SDS011;37911;51.526;11.536;2023-10-08T10:49:00;8.77;;;2.60;;
51877;SDS011;37911;51.526;11.536;2023-10-08T10:52:19;8.40;;;2.38;;
51877;SDS011;37911;51.526;11.536;2023-10-08T10:55:31;8.70;;;2.05;;
51877;SDS011;37911;51.526;11.536;2023-10-08T10:58:37;6.45;;;1.92;;
51877;SDS011;37911;51.526;11.536;2023-10-08T11:01:40;5.60;;;2.05;;
51877;SDS011;37911;51.526;11.536;2023-10-08T11:04:55;8.73;;;2.58;;
51877;SDS011;37911;51.526;11.536;2023-10-08T11:08:07;9.85;;;2.30;;
51877;SDS011;37911;51.526;11.536;2023-10-08T11:11:16;8.70;;;2.17;;
51877;SDS011;37911;51.526;11.536;2023-10-08T11:14:20;9.95;;;2.42;;
51877;SDS011;37911;51.526;11.536;2023-10-08T11:17:24;9.75;;;3.10;;
51877;SDS011;37911;51.526;11.536;2023-10-08T11:20:32;10.05;;;2.50;;
51877;SDS011;37911;51.526;11.536;2023-10-08T11:23:41;11.38;;;2.50;;
51877;SDS011;37911;51.526;11.536;2023-10-08T11:26:47;12.05;;;2.60;;
51877;SDS011;37911;51.526;11.536;2023-10-08T11:30:03;9.13;;;2.50;;
51877;SDS011;37911;51.526;11.536;2023-10-08T11:33:11;11.90;;;2.90;;
51877;SDS011;37911;51.526;11.536;2023-10-08T11:36:19;7.50;;;2.28;;
51877;SDS011;37911;51.526;11.536;2023-10-08T11:39:27;12.20;;;2.70;;
51877;SDS011;37911;51.526;11.536;2023-10-08T11:42:33;12.13;;;2.75;;
51877;SDS011;37911;51.526;11.536;2023-10-08T11:45:44;12.50;;;2.78;;
51877;SDS011;37911;51.526;11.536;2023-10-08T11:48:49;6.63;;;2.20;;
51877;SDS011;37911;51.526;11.536;2023-10-08T11:51:55;9.80;;;2.58;;
51877;SDS011;37911;51.526;11.536;2023-10-08T11:55:01;11.25;;;2.38;;
51877;SDS011;37911;51.526;11.536;2023-10-08T11:58:06;7.35;;;2.75;;
51877;SDS011;37911;51.526;11.536;2023-10-08T12:01:17;9.55;;;2.63;;
51877;SDS011;37911;51.526;11.536;2023-10-08T12:04:21;10.20;;;2.63;;
51877;SDS011;37911;51.526;11.536;2023-10-08T12:07:27;11.75;;;2.45;;
51877;SDS011;37911;51.526;11.536;2023-10-08T12:10:32;12.57;;;2.35;;
51877;SDS011;37911;51.526;11.536;2023-10-08T12:13:35;9.60;;;2.80;;
51877;SDS011;37911;51.526;11.536;2023-10-08T12:16:39;9.50;;;2.58;;
51877;SDS011;37911;51.526;11.536;2023-10-08T12:19:43;10.05;;;2.70;;
51877;SDS011;37911;51.526;11.536;2023-10-08T12:22:49;11.75;;;2.70;;
51877;SDS011;37911;51.526;11.536;2023-10-08T12:25:53;7.55;;;1.98;;
51877;SDS011;37911;51.526;11.536;2023-10-08T12:28:56;8.18;;;2.17;;
51877;SDS011;37911;51.526;11.536;2023-10-08T12:32:00;9.18;;;2.42;;
51877;SDS011;37911;51.526;11.536;2023-10-08T12:35:09;8.23;;;2.28;;
51877;SDS011;37911;51.526;11.536;2023-10-08T12:38:15;8.57;;;2.42;;
51877;SDS011;37911;51.526;11.536;2023-10-08T12:41:22;5.40;;;2.10;;
51877;SDS011;37911;51.526;11.536;2023-10-08T12:44:27;9.05;;;2.58;;
51877;SDS011;37911;51.526;11.536;2023-10-08T12:47:30;11.80;;;2.28;;
51877;SDS011;37911;51.526;11.536;2023-10-08T12:50:37;6.53;;;1.90;;
51877;SDS011;37911;51.526;11.536;2023-10-08T12:53:47;8.32;;;2.38;;
51877;SDS011;37911;51.526;11.536;2023-10-08T12:56:59;6.47;;;2.00;;
51877;SDS011;37911;51.526;11.536;2023-10-08T13:00:07;8.80;;;2.60;;
51877;SDS011;37911;51.526;11.536;2023-10-08T13:03:12;12.75;;;3.10;;
51877;SDS011;37911;51.526;11.536;2023-10-08T13:06:16;11.18;;;2.85;;
51877;SDS011;37911;51.526;11.536;2023-10-08T13:09:31;12.60;;;3.08;;
51877;SDS011;37911;51.526;11.536;2023-10-08T13:12:37;7.82;;;2.60;;
51877;SDS011;37911;51.526;11.536;2023-10-08T13:15:42;8.65;;;3.00;;
51877;SDS011;37911;51.526;11.536;2023-10-08T13:18:46;6.47;;;2.60;;
51877;SDS011;37911;51.526;11.536;2023-10-08T13:21:50;16.48;;;8.15;;
51877;SDS011;37911;51.526;11.536;2023-10-08T13:24:56;6.97;;;2.40;;
51877;SDS011;37911;51.526;11.536;2023-10-08T13:28:05;29.77;;;17.27;;
51877;SDS011;37911;51.526;11.536;2023-10-08T13:31:11;15.35;;;7.53;;
51877;SDS011;37911;51.526;11.536;2023-10-08T13:34:16;18.48;;;9.05;;
51877;SDS011;37911;51.526;11.536;2023-10-08T13:37:21;6.70;;;2.42;;
51877;SDS011;37911;51.526;11.536;2023-10-08T13:40:31;7.88;;;2.85;;
51877;SDS011;37911;51.526;11.536;2023-10-08T13:43:40;9.65;;;2.67;;
51877;SDS011;37911;51.526;11.536;2023-10-08T13:46:45;6.45;;;2.20;;
51877;SDS011;37911;51.526;11.536;2023-10-08T13:49:51;8.57;;;2.33;;
51877;SDS011;37911;51.526;11.536;2023-10-08T13:52:55;8.35;;;1.98;;
51877;SDS011;37911;51.526;11.536;2023-10-08T13:56:01;5.43;;;2.00;;
51877;SDS011;37911;51.526;11.536;2023-10-08T13:59:06;12.35;;;2.35;;
51877;SDS011;37911;51.526;11.536;2023-10-08T14:02:14;7.23;;;2.20;;
51877;SDS011;37911;51.526;11.536;2023-10-08T14:05:21;8.55;;;2.10;;
51877;SDS011;37911;51.526;11.536;2023-10-08T14:08:26;6.57;;;2.25;;
51877;SDS011;37911;51.526;11.536;2023-10-08T14:11:33;8.18;;;2.17;;
51877;SDS011;37911;51.526;11.536;2023-10-08T14:14:37;8.55;;;1.88;;
51877;SDS011;37911;51.526;11.536;2023-10-08T14:17:44;5.38;;;2.10;;
51877;SDS011;37911;51.526;11.536;2023-10-08T14:20:48;6.63;;;2.13;;
51877;SDS011;37911;51.526;11.536;2023-10-08T14:23:54;7.10;;;1.90;;
51877;SDS011;37911;51.526;11.536;2023-10-08T14:27:05;6.20;;;1.83;;
51877;SDS011;37911;51.526;11.536;2023-10-08T14:30:15;6.88;;;2.05;;
51877;SDS011;37911;51.526;11.536;2023-10-08T14:33:21;7.63;;;2.35;;
51877;SDS011;37911;51.526;11.536;2023-10-08T14:36:34;6.93;;;2.22;;
51877;SDS011;37911;51.526;11.536;2023-10-08T14:39:50;9.23;;;2.25;;
51877;SDS011;37911;51.526;11.536;2023-10-08T14:43:09;10.15;;;2.20;;
51877;SDS011;37911;51.526;11.536;2023-10-08T14:46:12;6.88;;;2.08;;
51877;SDS011;37911;51.526;11.536;2023-10-08T14:49:16;11.25;;;2.38;;
51877;SDS011;37911;51.526;11.536;2023-10-08T14:52:22;9.13;;;2.10;;
51877;SDS011;37911;51.526;11.536;2023-10-08T14:55:26;8.73;;;1.92;;
51877;SDS011;37911;51.526;11.536;2023-10-08T14:58:32;8.30;;;2.20;;
51877;SDS011;37911;51.526;11.536;2023-10-08T15:01:36;6.20;;;2.03;;
51877;SDS011;37911;51.526;11.536;2023-10-08T15:04:39;7.28;;;2.17;;
51877;SDS011;37911;51.526;11.536;2023-10-08T15:07:47;6.25;;;2.03;;
51877;SDS011;37911;51.526;11.536;2023-10-08T15:10:51;6.03;;;2.17;;
51877;SDS011;37911;51.526;11.536;2023-10-08T15:13:57;8.60;;;1.90;;
51877;SDS011;37911;51.526;11.536;2023-10-08T15:17:01;6.43;;;2.17;;
51877;SDS011;37911;51.526;11.536;2023-10-08T15:20:05;10.23;;;2.03;;
51877;SDS011;37911;51.526;11.536;2023-10-08T15:23:14;9.93;;;2.58;;
51877;SDS011;37911;51.526;11.536;2023-10-08T15:26:20;7.72;;;2.13;;
51877;SDS011;37911;51.526;11.536;2023-10-08T15:29:29;7.82;;;1.95;;
51877;SDS011;37911;51.526;11.536;2023-10-08T15:35:37;8.43;;;2.40;;
51877;SDS011;37911;51.526;11.536;2023-10-08T15:38:40;7.47;;;2.10;;
51877;SDS011;37911;51.526;11.536;2023-10-08T15:41:44;4.18;;;1.83;;
51877;SDS011;37911;51.526;11.536;2023-10-08T15:44:50;8.75;;;2.45;;
51877;SDS011;37911;51.526;11.536;2023-10-08T15:47:53;11.02;;;3.80;;
51877;SDS011;37911;51.526;11.536;2023-10-08T15:50:58;16.67;;;11.52;;
51877;SDS011;37911;51.526;11.536;2023-10-08T15:54:01;18.38;;;11.68;;
51877;SDS011;37911;51.526;11.536;2023-10-08T15:57:06;13.45;;;5.43;;
51877;SDS011;37911;51.526;11.536;2023-10-08T16:00:12;5.90;;;2.20;;
51877;SDS011;37911;51.526;11.536;2023-10-08T16:03:18;6.32;;;2.30;;
51877;SDS011;37911;51.526;11.536;2023-10-08T16:06:21;7.10;;;2.40;;
51877;SDS011;37911;51.526;11.536;2023-10-08T16:09:25;7.57;;;2.42;;
51877;SDS011;37911;51.526;11.536;2023-10-08T16:12:28;7.75;;;2.72;;
51877;SDS011;37911;51.526;11.536;2023-10-08T16:15:34;6.75;;;2.22;;
51877;SDS011;37911;51.526;11.536;2023-10-08T16:18:40;7.47;;;2.30;;
51877;SDS011;37911;51.526;11.536;2023-10-08T16:21:43;12.02;;;2.97;;
51877;SDS011;37911;51.526;11.536;2023-10-08T16:24:48;13.45;;;4.22;;
51877;SDS011;37911;51.526;11.536;2023-10-08T16:27:51;20.88;;;6.75;;
51877;SDS011;37911;51.526;11.536;2023-10-08T16:30:58;8.77;;;2.60;;
51877;SDS011;37911;51.526;11.536;2023-10-08T16:34:04;8.27;;;2.72;;
51877;SDS011;37911;51.526;11.536;2023-10-08T16:37:09;4.75;;;1.90;;
51877;SDS011;37911;51.526;11.536;2023-10-08T16:40:15;9.65;;;2.28;;
51877;SDS011;37911;51.526;11.536;2023-10-08T16:43:19;8.55;;;3.03;;
51877;SDS011;37911;51.526;11.536;2023-10-08T16:46:25;9.77;;;3.08;;
51877;SDS011;37911;51.526;11.536;2023-10-08T16:49:28;9.48;;;2.53;;
51877;SDS011;37911;51.526;11.536;2023-10-08T16:52:32;6.53;;;2.38;;
51877;SDS011;37911;51.526;11.536;2023-10-08T16:55:35;8.73;;;2.05;;
51877;SDS011;37911;51.526;11.536;2023-10-08T16:58:38;4.82;;;2.00;;
51877;SDS011;37911;51.526;11.536;2023-10-08T17:01:45;9.02;;;2.50;;
51877;SDS011;37911;51.526;11.536;2023-10-08T17:04:50;5.10;;;2.00;;
51877;SDS011;37911;51.526;11.536;2023-10-08T17:07:53;7.25;;;2.58;;
51877;SDS011;37911;51.526;11.536;2023-10-08T17:10:57;10.00;;;2.83;;
51877;SDS011;37911;51.526;11.536;2023-10-08T17:14:00;7.35;;;2.70;;
51877;SDS011;37911;51.526;11.536;2023-10-08T17:17:07;9.00;;;4.35;;
51877;SDS011;37911;51.526;11.536;2023-10-08T17:20:10;36.58;;;27.10;;
51877;SDS011;37911;51.526;11.536;2023-10-08T17:23:17;30.40;;;14.77;;
51877;SDS011;37911;51.526;11.536;2023-10-08T17:26:21;11.57;;;4.38;;
51877;SDS011;37911;51.526;11.536;2023-10-08T17:29:24;11.82;;;5.70;;
51877;SDS011;37911;51.526;11.536;2023-10-08T17:32:31;11.75;;;5.35;;
51877;SDS011;37911;51.526;11.536;2023-10-08T17:35:35;14.70;;;5.45;;
51877;SDS011;37911;51.526;11.536;2023-10-08T17:38:39;13.05;;;4.75;;
51877;SDS011;37911;51.526;11.536;2023-10-08T17:41:42;10.93;;;4.20;;
51877;SDS011;37911;51.526;11.536;2023-10-08T17:44:49;14.13;;;4.60;;
51877;SDS011;37911;51.526;11.536;2023-10-08T17:47:55;19.02;;;7.85;;
51877;SDS011;37911;51.526;11.536;2023-10-08T17:51:01;16.92;;;7.05;;
51877;SDS011;37911;51.526;11.536;2023-10-08T17:54:06;16.83;;;7.38;;
51877;SDS011;37911;51.526;11.536;2023-10-08T17:57:10;14.93;;;8.48;;
51877;SDS011;37911;51.526;11.536;2023-10-08T18:00:15;28.05;;;10.13;;
51877;SDS011;37911;51.526;11.536;2023-10-08T18:03:24;32.03;;;10.10;;
51877;SDS011;37911;51.526;11.536;2023-10-08T18:06:30;21.27;;;7.75;;
51877;SDS011;37911;51.526;11.536;2023-10-08T18:09:33;19.30;;;6.68;;
51877;SDS011;37911;51.526;11.536;2023-10-08T18:12:37;19.25;;;6.47;;
51877;SDS011;37911;51.526;11.536;2023-10-08T18:15:40;19.17;;;9.77;;
51877;SDS011;37911;51.526;11.536;2023-10-08T18:18:47;37.15;;;28.05;;
51877;SDS011;37911;51.526;11.536;2023-10-08T18:24:58;19.65;;;10.13;;
51877;SDS011;37911;51.526;11.536;2023-10-08T18:28:03;30.00;;;18.80;;
51877;SDS011;37911;51.526;11.536;2023-10-08T18:31:07;14.38;;;6.40;;